createdAt,value
2022-10-28T00:01:06.295Z,39.92
2022-10-28T00:03:33.836Z,39.20
2022-10-28T00:06:09.712Z,36.78
2022-10-28T00:08:37.273Z,39.72
2022-10-28T00:11:09.539Z,37.83
2022-10-28T00:13:37.125Z,63.50
2022-10-28T00:16:12.487Z,60.78
2022-10-28T00:18:40.033Z,46.17
2022-10-28T00:21:16.274Z,32.42
2022-10-28T00:23:44.035Z,33.75
2022-10-28T00:26:26.962Z,25.85
2022-10-28T00:29:02.432Z,37.00
2022-10-28T00:31:30.615Z,28.75
2022-10-28T00:33:59.950Z,33.17
2022-10-28T00:36:29.563Z,35.78
2022-10-28T00:38:57.534Z,30.67
2022-10-28T00:41:27.862Z,21.63
2022-10-28T00:43:58.020Z,21.23
2022-10-28T00:46:41.810Z,26.90
2022-10-28T00:49:29.842Z,28.77
2022-10-28T00:52:06.621Z,21.65
2022-10-28T00:54:35.376Z,24.90
2022-10-28T00:57:05.984Z,23.88
2022-10-28T00:59:37.160Z,13.50
2022-10-28T01:02:05.492Z,12.95
2022-10-28T01:04:33.289Z,25.83
2022-10-28T01:07:02.172Z,15.00
2022-10-28T01:09:29.656Z,22.45
2022-10-28T01:12:27.947Z,15.43
2022-10-28T01:15:20.574Z,13.45
2022-10-28T01:17:57.788Z,13.43
2022-10-28T01:20:27.698Z,10.50
2022-10-28T01:23:22.456Z,12.85
2022-10-28T01:26:23.920Z,13.70
2022-10-28T01:29:19.536Z,12.07
2022-10-28T01:32:08.624Z,9.65
2022-10-28T01:34:54.035Z,16.52
2022-10-28T01:37:44.590Z,11.68
2022-10-28T01:40:21.299Z,9.93
2022-10-28T01:42:54.799Z,14.35
2022-10-28T01:45:31.408Z,10.13
2022-10-28T01:48:04.248Z,10.90
2022-10-28T01:51:08.980Z,7.75
2022-10-28T01:53:41.852Z,9.02
2022-10-28T01:56:16.660Z,16.10
2022-10-28T01:58:44.788Z,14.95
2022-10-28T02:01:12.385Z,12.15
2022-10-28T02:03:39.674Z,11.00
2022-10-28T02:06:14.495Z,11.23
2022-10-28T02:09:08.384Z,10.30
2022-10-28T02:11:41.199Z,11.18
2022-10-28T02:14:14.353Z,10.18
2022-10-28T02:16:50.584Z,10.50
2022-10-28T02:19:47.363Z,19.87
2022-10-28T02:22:23.508Z,18.17
2022-10-28T02:24:54.894Z,10.93
2022-10-28T02:27:38.184Z,15.25
2022-10-28T02:30:09.651Z,16.83
2022-10-28T02:32:44.633Z,24.05
2022-10-28T02:35:20.857Z,11.57
2022-10-28T02:37:50.647Z,16.70
2022-10-28T02:40:25.343Z,13.38
2022-10-28T02:43:00.079Z,21.20
2022-10-28T02:45:35.807Z,13.68
2022-10-28T02:48:08.403Z,12.82
2022-10-28T02:50:39.829Z,12.73
2022-10-28T02:53:35.485Z,13.27
2022-10-28T02:56:06.944Z,17.38
2022-10-28T02:58:41.165Z,13.13
2022-10-28T03:01:08.422Z,16.45
2022-10-28T03:03:35.516Z,13.63
2022-10-28T03:06:02.520Z,9.45
2022-10-28T03:08:29.477Z,11.93
2022-10-28T03:10:56.433Z,9.18
2022-10-28T03:13:23.577Z,12.88
2022-10-28T03:15:50.555Z,9.75
2022-10-28T03:18:17.473Z,17.20
2022-10-28T03:20:44.359Z,20.50
2022-10-28T03:23:12.194Z,26.33
2022-10-28T03:25:39.526Z,17.88
2022-10-28T03:28:06.706Z,13.90
2022-10-28T03:30:33.594Z,10.35
2022-10-28T03:33:01.232Z,10.38
2022-10-28T03:35:28.211Z,14.93
2022-10-28T03:37:55.666Z,19.85
2022-10-28T03:40:22.944Z,19.23
2022-10-28T03:42:50.123Z,21.63
2022-10-28T03:45:17.282Z,17.23
2022-10-28T03:47:45.414Z,12.23
2022-10-28T03:50:12.389Z,19.20
2022-10-28T03:52:39.736Z,16.20
2022-10-28T03:55:08.805Z,17.17
2022-10-28T03:57:36.134Z,15.95
2022-10-28T04:00:05.212Z,17.10
2022-10-28T04:02:38.875Z,12.70
2022-10-28T04:05:06.438Z,11.05
2022-10-28T04:07:33.586Z,8.85
2022-10-28T04:10:01.178Z,11.45
2022-10-28T04:12:28.373Z,12.60
2022-10-28T04:14:55.610Z,12.50
2022-10-28T04:17:22.692Z,17.42
2022-10-28T04:19:49.980Z,15.43
2022-10-28T04:22:16.887Z,14.27
2022-10-28T04:24:43.797Z,9.85
2022-10-28T04:27:10.711Z,18.20
2022-10-28T04:29:37.623Z,14.15
2022-10-28T04:32:04.700Z,13.32
2022-10-28T04:34:32.083Z,12.48
2022-10-28T04:36:59.641Z,11.90
2022-10-28T04:39:26.754Z,13.50
2022-10-28T04:41:54.634Z,14.77
2022-10-28T04:44:21.529Z,9.90
2022-10-28T04:46:49.071Z,9.68
2022-10-28T04:49:16.412Z,11.27
2022-10-28T04:51:43.651Z,20.63
2022-10-28T04:54:10.712Z,13.20
2022-10-28T04:56:37.677Z,12.02
2022-10-28T04:59:04.725Z,13.73
2022-10-28T05:01:31.825Z,9.50
2022-10-28T05:03:59.752Z,15.95
2022-10-28T05:06:26.613Z,11.98
2022-10-28T05:08:53.866Z,15.65
2022-10-28T05:11:21.253Z,14.50
2022-10-28T05:13:48.507Z,11.77
2022-10-28T05:16:15.471Z,19.30
2022-10-28T05:21:15.500Z,20.00
2022-10-28T05:23:44.377Z,15.50
2022-10-28T05:26:11.783Z,11.43
2022-10-28T05:28:38.671Z,12.38
2022-10-28T05:31:06.258Z,12.40
2022-10-28T05:33:36.007Z,15.07
2022-10-28T05:36:03.257Z,13.52
2022-10-28T05:38:30.505Z,11.60
2022-10-28T05:40:57.757Z,16.20
2022-10-28T05:43:24.645Z,7.55
2022-10-28T05:45:56.601Z,9.93
2022-10-28T05:48:24.418Z,13.93
2022-10-28T05:50:51.383Z,11.90
2022-10-28T05:53:18.813Z,17.65
2022-10-28T05:55:47.774Z,10.20
2022-10-28T05:58:15.863Z,8.77
2022-10-28T06:00:43.295Z,18.90
2022-10-28T06:03:12.274Z,21.00
2022-10-28T06:05:43.860Z,27.65
2022-10-28T06:08:12.934Z,15.55
2022-10-28T06:10:40.714Z,20.45
2022-10-28T06:13:07.853Z,16.67
2022-10-28T06:15:34.819Z,30.50
2022-10-28T06:18:02.286Z,17.05
2022-10-28T06:20:29.443Z,9.77
2022-10-28T06:22:56.623Z,11.15
2022-10-28T06:25:25.034Z,18.77
2022-10-28T06:27:54.833Z,18.58
2022-10-28T06:30:23.685Z,17.50
2022-10-28T06:32:50.548Z,17.27
2022-10-28T06:35:18.904Z,22.17
2022-10-28T06:37:45.829Z,28.30
2022-10-28T06:40:13.104Z,25.42
2022-10-28T06:42:40.709Z,21.85
2022-10-28T06:45:08.308Z,31.98
2022-10-28T06:47:40.577Z,25.33
2022-10-28T06:50:09.390Z,19.40
2022-10-28T06:52:36.590Z,23.08
2022-10-28T06:55:04.107Z,19.38
2022-10-28T06:57:32.156Z,22.80
2022-10-28T06:59:59.721Z,16.05
2022-10-28T07:02:26.928Z,20.70
2022-10-28T07:04:54.636Z,22.35
2022-10-28T07:07:21.580Z,18.25
2022-10-28T07:09:49.265Z,17.40
2022-10-28T07:12:19.829Z,20.83
2022-10-28T07:14:46.986Z,25.65
2022-10-28T07:17:13.868Z,27.50
2022-10-28T07:19:41.942Z,17.45
2022-10-28T07:22:08.863Z,18.15
2022-10-28T07:24:35.944Z,22.30
2022-10-28T07:27:02.934Z,18.00
2022-10-28T07:29:29.886Z,18.48
2022-10-28T07:31:57.566Z,29.08
2022-10-28T07:34:27.147Z,23.75
2022-10-28T07:36:55.746Z,28.02
2022-10-28T07:39:23.092Z,24.60
2022-10-28T07:41:50.172Z,22.65
2022-10-28T07:44:17.309Z,21.55
2022-10-28T07:46:44.359Z,21.38
2022-10-28T07:49:11.272Z,18.90
2022-10-28T07:51:38.204Z,22.50
2022-10-28T07:54:05.250Z,22.73
2022-10-28T07:56:32.275Z,20.10
2022-10-28T07:59:00.752Z,30.15
2022-10-28T08:01:27.840Z,21.40
2022-10-28T08:03:54.960Z,22.85
2022-10-28T08:06:22.338Z,24.42
2022-10-28T08:08:54.768Z,28.33
2022-10-28T08:11:23.839Z,25.13
2022-10-28T08:13:55.364Z,22.88
2022-10-28T08:16:22.829Z,34.42
2022-10-28T08:18:49.882Z,28.63
2022-10-28T08:21:17.242Z,35.45
2022-10-28T08:23:46.748Z,50.25
2022-10-28T08:26:16.144Z,35.42
2022-10-28T08:28:43.423Z,42.95
2022-10-28T08:31:12.580Z,39.63
2022-10-28T08:33:42.714Z,44.65
2022-10-28T08:36:12.189Z,36.92
2022-10-28T08:38:44.301Z,66.07
2022-10-28T08:41:30.189Z,50.42
2022-10-28T08:44:17.501Z,50.10
2022-10-28T08:47:03.088Z,38.78
2022-10-28T08:49:33.610Z,27.65
2022-10-28T08:52:14.139Z,35.00
2022-10-28T08:54:50.629Z,38.60
2022-10-28T08:57:26.040Z,41.90
2022-10-28T08:59:55.046Z,34.97
2022-10-28T09:02:25.349Z,31.48
2022-10-28T09:05:06.584Z,39.05
2022-10-28T09:07:37.306Z,36.65
2022-10-28T09:10:06.000Z,41.55
2022-10-28T09:12:49.353Z,35.17
2022-10-28T09:15:38.272Z,35.75
2022-10-28T09:18:06.028Z,30.35
2022-10-28T09:20:54.750Z,32.50
2022-10-28T09:23:45.658Z,23.65
2022-10-28T09:26:42.596Z,37.00
2022-10-28T09:29:19.006Z,30.30
2022-10-28T09:31:50.331Z,30.15
2022-10-28T09:34:29.903Z,29.95
2022-10-28T09:37:20.101Z,32.88
2022-10-28T09:39:51.054Z,29.85
2022-10-28T09:42:25.602Z,20.13
2022-10-28T09:45:02.649Z,22.42
2022-10-28T09:47:38.584Z,26.48
2022-10-28T09:50:15.927Z,25.35
2022-10-28T09:53:21.815Z,17.50
2022-10-28T09:55:51.572Z,25.02
2022-10-28T09:58:19.295Z,25.20
2022-10-28T10:00:46.771Z,24.33
2022-10-28T10:03:17.263Z,17.77
2022-10-28T10:05:49.878Z,21.33
2022-10-28T10:08:20.195Z,26.70
2022-10-28T10:11:00.940Z,21.60
2022-10-28T10:13:33.254Z,19.92
2022-10-28T10:16:05.958Z,21.73
2022-10-28T10:18:34.324Z,18.75
2022-10-28T10:21:01.683Z,19.45
2022-10-28T10:23:46.515Z,16.02
2022-10-28T10:26:16.353Z,16.88
2022-10-28T10:28:49.576Z,15.88
2022-10-28T10:31:20.411Z,17.73
2022-10-28T10:33:58.903Z,14.30
2022-10-28T10:36:29.112Z,11.55
2022-10-28T10:38:56.897Z,11.38
2022-10-28T10:41:36.015Z,7.30
2022-10-28T10:44:22.888Z,13.77
2022-10-28T10:47:06.502Z,13.18
2022-10-28T10:49:37.201Z,12.40
2022-10-28T10:52:17.585Z,11.57
2022-10-28T10:55:00.055Z,11.98
2022-10-28T10:57:27.814Z,8.25
2022-10-28T10:59:56.752Z,12.02
2022-10-28T11:02:37.185Z,15.63
2022-10-28T11:05:07.772Z,11.52
2022-10-28T11:07:36.614Z,16.23
2022-10-28T11:10:05.509Z,12.10
2022-10-28T11:12:39.047Z,12.70
2022-10-28T11:15:09.502Z,7.90
2022-10-28T11:17:36.408Z,7.15
2022-10-28T11:20:44.413Z,8.90
2022-10-28T11:23:18.276Z,12.40
2022-10-28T11:25:50.810Z,14.90
2022-10-28T11:28:39.276Z,9.13
2022-10-28T11:31:25.051Z,9.57
2022-10-28T11:34:24.191Z,13.23
2022-10-28T11:37:39.336Z,17.10
2022-10-28T11:40:18.247Z,7.65
2022-10-28T11:43:25.721Z,8.68
2022-10-28T11:46:17.399Z,7.70
2022-10-28T11:48:52.814Z,6.15
2022-10-28T11:51:41.311Z,11.07
2022-10-28T11:54:29.615Z,9.10
2022-10-28T11:57:07.546Z,5.43
2022-10-28T11:59:52.910Z,8.50
2022-10-28T12:02:52.324Z,12.32
2022-10-28T12:05:34.327Z,9.40
2022-10-28T12:08:26.779Z,14.57
2022-10-28T12:11:39.558Z,16.15
2022-10-28T12:14:41.460Z,9.95
2022-10-28T12:17:17.524Z,12.70
2022-10-28T12:20:14.612Z,10.50
2022-10-28T12:22:54.908Z,8.32
2022-10-28T12:25:26.710Z,14.65
2022-10-28T12:28:03.195Z,9.63
2022-10-28T12:33:15.752Z,10.65
2022-10-28T12:35:51.511Z,8.95
2022-10-28T12:38:42.103Z,8.77
2022-10-28T12:44:20.276Z,13.23
2022-10-28T12:47:14.948Z,9.43
2022-10-28T12:50:08.955Z,6.85
2022-10-28T12:52:44.393Z,11.45
2022-10-28T12:55:17.894Z,10.00
2022-10-28T12:57:49.873Z,8.63
2022-10-28T13:00:23.488Z,8.18
2022-10-28T13:03:05.508Z,9.85
2022-10-28T13:05:46.711Z,17.35
2022-10-28T13:08:46.196Z,22.73
2022-10-28T13:11:15.990Z,18.13
2022-10-28T13:13:45.677Z,18.73
2022-10-28T13:16:24.401Z,11.52
2022-10-28T13:19:00.013Z,21.98
2022-10-28T13:21:59.041Z,28.87
2022-10-28T13:24:42.928Z,34.90
2022-10-28T13:27:13.743Z,18.33
2022-10-28T13:29:43.538Z,34.47
2022-10-28T13:32:35.757Z,25.90
2022-10-28T13:35:23.175Z,12.88
2022-10-28T13:37:53.063Z,14.73
2022-10-28T13:40:32.282Z,18.10
2022-10-28T13:43:01.090Z,10.75
2022-10-28T13:45:48.695Z,8.45
2022-10-28T13:48:41.589Z,15.48
2022-10-28T13:51:11.706Z,19.42
2022-10-28T13:53:45.994Z,25.17
2022-10-28T13:56:30.534Z,16.13
2022-10-28T13:59:02.571Z,12.18
2022-10-28T14:01:38.876Z,24.00
2022-10-28T14:04:19.729Z,21.27
2022-10-28T14:06:48.175Z,21.58
2022-10-28T14:09:29.448Z,20.10
2022-10-28T14:12:17.968Z,24.10
2022-10-28T14:14:58.470Z,20.33
2022-10-28T14:17:36.122Z,19.38
2022-10-28T14:20:06.273Z,17.40
2022-10-28T14:22:37.020Z,17.27
2022-10-28T14:25:41.937Z,17.13
2022-10-28T14:28:27.421Z,22.02
2022-10-28T14:31:09.684Z,13.52
2022-10-28T14:33:42.676Z,21.30
2022-10-28T14:36:18.783Z,16.20
2022-10-28T14:39:04.322Z,20.55
2022-10-28T14:41:34.987Z,23.73
2022-10-28T14:44:17.000Z,15.75
2022-10-28T14:46:56.239Z,11.20
2022-10-28T14:49:45.569Z,19.08
2022-10-28T14:52:20.025Z,13.07
2022-10-28T14:54:51.684Z,22.67
2022-10-28T14:57:22.934Z,21.15
2022-10-28T14:59:51.803Z,13.27
2022-10-28T15:02:22.763Z,20.33
2022-10-28T15:05:03.256Z,10.75
2022-10-28T15:07:35.621Z,12.32
2022-10-28T15:10:28.791Z,18.05
2022-10-28T15:12:58.131Z,18.08
2022-10-28T15:15:29.774Z,17.52
2022-10-28T15:17:57.987Z,16.00
2022-10-28T15:20:32.513Z,16.00
2022-10-28T15:23:20.192Z,13.95
2022-10-28T15:26:05.479Z,20.45
2022-10-28T15:28:32.890Z,23.38
2022-10-28T15:30:59.811Z,18.85
2022-10-28T15:33:30.898Z,16.70
2022-10-28T15:36:17.693Z,13.13
2022-10-28T15:38:47.285Z,17.40
2022-10-28T15:41:23.841Z,20.65
2022-10-28T15:43:56.301Z,24.50
2022-10-28T15:46:24.900Z,20.50
2022-10-28T15:48:53.446Z,26.25
2022-10-28T15:51:21.702Z,27.23
2022-10-28T15:53:55.890Z,18.15
2022-10-28T15:56:27.352Z,22.58
2022-10-28T15:59:07.349Z,13.55
2022-10-28T16:01:41.189Z,10.95
2022-10-28T16:04:23.242Z,14.68
2022-10-28T16:06:55.939Z,28.80
2022-10-28T16:09:35.726Z,24.45
2022-10-28T16:12:13.080Z,37.47
2022-10-28T16:14:42.791Z,41.92
2022-10-28T16:17:19.116Z,21.15
2022-10-28T16:20:16.998Z,27.98
2022-10-28T16:22:46.023Z,42.78
2022-10-28T16:25:15.073Z,57.25
2022-10-28T16:27:42.282Z,75.32
2022-10-28T16:30:10.562Z,91.57
2022-10-28T16:32:39.302Z,108.93
2022-10-28T16:35:15.274Z,63.08
2022-10-28T16:37:45.274Z,69.47
2022-10-28T16:40:37.608Z,58.05
2022-10-28T16:43:01.805Z,51.13
2022-10-28T16:45:29.130Z,53.25
2022-10-28T16:47:56.682Z,61.90
2022-10-28T16:50:25.041Z,37.42
2022-10-28T16:52:54.425Z,36.88
2022-10-28T16:55:21.431Z,40.38
2022-10-28T16:57:48.369Z,59.25
2022-10-28T17:00:16.387Z,70.38
2022-10-28T17:02:43.360Z,55.63
2022-10-28T17:05:20.022Z,36.40
2022-10-28T17:07:47.316Z,40.58
2022-10-28T17:10:15.243Z,27.55
2022-10-28T17:12:42.785Z,26.40
2022-10-28T17:15:10.816Z,28.85
2022-10-28T17:17:38.255Z,23.75
2022-10-28T17:20:06.074Z,19.98
2022-10-28T17:22:33.703Z,31.95
2022-10-28T17:25:00.679Z,32.13
2022-10-28T17:27:28.085Z,17.05
2022-10-28T17:29:55.352Z,25.90
2022-10-28T17:32:22.374Z,22.30
2022-10-28T17:34:50.155Z,14.65
2022-10-28T17:37:17.170Z,22.08
2022-10-28T17:39:44.878Z,28.15
2022-10-28T17:42:13.691Z,27.70
2022-10-28T17:44:44.151Z,24.98
2022-10-28T17:47:12.394Z,27.00
2022-10-28T17:49:39.396Z,27.27
2022-10-28T17:52:06.421Z,20.80
2022-10-28T17:54:34.073Z,21.10
2022-10-28T17:57:00.993Z,27.52
2022-10-28T17:59:28.416Z,30.60
2022-10-28T18:01:55.556Z,37.38
2022-10-28T18:04:26.421Z,40.20
2022-10-28T18:06:55.331Z,41.60
2022-10-28T18:09:23.055Z,31.63
2022-10-28T18:11:50.650Z,25.05
2022-10-28T18:14:18.011Z,31.00
2022-10-28T18:16:46.112Z,37.30
2022-10-28T18:19:13.881Z,27.73
2022-10-28T18:21:41.140Z,29.42
2022-10-28T18:24:08.559Z,30.65
2022-10-28T18:26:37.441Z,27.30
2022-10-28T18:29:06.395Z,27.15
2022-10-28T18:31:34.179Z,21.52
2022-10-28T18:34:02.794Z,19.05
2022-10-28T18:36:34.560Z,31.88
2022-10-28T18:39:04.524Z,24.83
2022-10-28T18:41:34.703Z,28.67
2022-10-28T18:44:09.891Z,33.63
2022-10-28T18:46:37.861Z,30.30
2022-10-28T18:49:05.612Z,22.88
2022-10-28T18:51:35.608Z,26.55
2022-10-28T18:54:02.680Z,33.53
2022-10-28T18:56:30.518Z,35.13
2022-10-28T18:58:58.679Z,31.27
2022-10-28T19:01:28.025Z,39.28
2022-10-28T19:04:00.370Z,33.83
2022-10-28T19:06:32.904Z,35.47
2022-10-28T19:09:02.397Z,40.47
2022-10-28T19:11:31.395Z,38.03
2022-10-28T19:14:06.447Z,34.83
2022-10-28T19:16:34.553Z,23.27
2022-10-28T19:19:03.169Z,34.38
2022-10-28T19:21:30.834Z,26.77
2022-10-28T19:23:57.781Z,37.92
2022-10-28T19:26:25.135Z,26.63
2022-10-28T19:28:52.362Z,27.08
2022-10-28T19:31:22.202Z,28.00
2022-10-28T19:33:49.322Z,25.88
2022-10-28T19:36:21.478Z,23.58
2022-10-28T19:38:50.033Z,37.08
2022-10-28T19:41:20.146Z,28.98
2022-10-28T19:43:47.706Z,26.88
2022-10-28T19:46:19.970Z,23.15
2022-10-28T19:48:49.384Z,26.20
2022-10-28T19:51:19.868Z,23.67
2022-10-28T19:53:51.616Z,28.60
2022-10-28T19:56:20.101Z,27.63
2022-10-28T19:58:49.711Z,26.38
2022-10-28T20:01:17.953Z,51.92
2022-10-28T20:03:49.217Z,41.05
2022-10-28T20:06:18.055Z,26.73
2022-10-28T20:08:47.166Z,26.95
2022-10-28T20:11:18.914Z,29.48
2022-10-28T20:13:56.303Z,33.80
2022-10-28T20:16:25.007Z,34.58
2022-10-28T20:18:53.195Z,30.42
2022-10-28T20:21:22.519Z,28.75
2022-10-28T20:23:53.747Z,31.75
2022-10-28T20:26:28.766Z,27.92
2022-10-28T20:28:57.114Z,40.85
2022-10-28T20:31:26.689Z,43.33
2022-10-28T20:34:00.895Z,32.60
2022-10-28T20:36:32.529Z,35.38
2022-10-28T20:39:03.142Z,33.10
2022-10-28T20:41:32.645Z,22.23
2022-10-28T20:44:00.344Z,23.48
2022-10-28T20:46:27.800Z,21.95
2022-10-28T20:48:56.542Z,24.00
2022-10-28T20:51:26.341Z,20.63
2022-10-28T20:53:53.562Z,24.02
2022-10-28T20:56:24.119Z,21.40
2022-10-28T20:58:52.495Z,25.23
2022-10-28T21:01:22.610Z,32.97
2022-10-28T21:03:53.833Z,37.83
2022-10-28T21:06:21.033Z,34.35
2022-10-28T21:08:48.401Z,33.05
2022-10-28T21:11:17.494Z,30.65
2022-10-28T21:13:49.326Z,33.15
2022-10-28T21:16:16.457Z,29.80
2022-10-28T21:18:43.447Z,26.52
2022-10-28T21:21:11.864Z,37.22
2022-10-28T21:23:39.114Z,24.42
2022-10-28T21:26:08.327Z,38.92
2022-10-28T21:28:36.367Z,29.00
2022-10-28T21:31:06.616Z,28.63
2022-10-28T21:33:36.066Z,27.10
2022-10-28T21:36:06.803Z,34.03
2022-10-28T21:38:35.131Z,31.73
2022-10-28T21:41:03.793Z,31.40
2022-10-28T21:43:34.761Z,28.38
2022-10-28T21:46:06.043Z,38.53
2022-10-28T21:48:35.645Z,26.70
2022-10-28T21:51:08.494Z,37.25
2022-10-28T21:53:39.699Z,25.58
2022-10-28T21:56:17.571Z,24.48
2022-10-28T21:58:47.873Z,26.17
2022-10-28T22:01:23.749Z,23.23
2022-10-28T22:03:54.687Z,20.30
2022-10-28T22:06:22.309Z,30.63
2022-10-28T22:08:49.237Z,37.78
2022-10-28T22:11:18.905Z,37.00
2022-10-28T22:13:46.423Z,40.15
2022-10-28T22:16:16.290Z,44.33
2022-10-28T22:18:44.654Z,35.90
2022-10-28T22:21:17.352Z,40.20
2022-10-28T22:23:44.695Z,48.72
2022-10-28T22:26:14.447Z,36.42
2022-10-28T22:28:41.666Z,39.47
2022-10-28T22:31:11.315Z,31.55
2022-10-28T22:33:38.998Z,31.60
2022-10-28T22:36:11.454Z,31.30
2022-10-28T22:38:38.971Z,25.73
2022-10-28T22:41:12.507Z,27.80
2022-10-28T22:43:40.644Z,26.58
2022-10-28T22:46:07.889Z,34.58
2022-10-28T22:48:34.913Z,35.30
2022-10-28T22:51:02.372Z,35.47
2022-10-28T22:53:29.484Z,31.23
2022-10-28T22:55:57.331Z,32.85
2022-10-28T22:58:26.436Z,36.00
2022-10-28T23:00:53.695Z,27.58
2022-10-28T23:03:20.641Z,19.63
2022-10-28T23:05:47.561Z,26.88
2022-10-28T23:08:17.069Z,55.22
2022-10-28T23:10:44.049Z,25.23
2022-10-28T23:13:12.910Z,19.20
2022-10-28T23:15:40.366Z,20.13
2022-10-28T23:18:07.296Z,19.75
2022-10-28T23:20:36.051Z,26.77
2022-10-28T23:23:03.743Z,19.92
2022-10-28T23:25:31.003Z,25.65
2022-10-28T23:27:58.205Z,19.13
2022-10-28T23:30:25.665Z,24.65
2022-10-28T23:32:52.616Z,28.77
2022-10-28T23:35:19.757Z,26.27
2022-10-28T23:37:47.267Z,21.13
2022-10-28T23:40:14.732Z,34.95
2022-10-28T23:42:41.758Z,17.98
2022-10-28T23:45:10.142Z,19.80
2022-10-28T23:47:37.033Z,13.07
2022-10-28T23:50:04.568Z,16.90
2022-10-28T23:52:32.288Z,13.38
2022-10-28T23:54:59.554Z,15.77
2022-10-28T23:57:26.521Z,17.98
2022-10-28T23:59:54.441Z,14.23
